Externo — V2QJ8 — position and weather

sailwx.info

Track history (hours):
 
Tides and Currents Weather Stations Pressure Air Temp Water Temp Dewpoint Dewpoint Depression Visibility Wind Speed Wind Dir Waves Ship Positions

Externo

Last reported at 2017-Oct-18 04:29 UTC. Time now 2017-Oct-18 07:12 UTC.
Position N 48°22' W 006°12'.

Length 141 m; draft 8.6 m.

Type: Ship (hazmat cat C). MMSI: 305838000.

Date/timePositionNaut miles runAvg speedWind from/ knotsBaromVisibWave heightAir tempDewpointWater temp
2017-Oct-18 04:29N 48°22' W 006°12'4015.9
2017-Oct-18 02:00N 48°56' W 005°41'915.9
2017-Oct-18 01:25N 48°60' W 005°28'8717.7
2017-Oct-17 20:29N 49°44' W 003°32'817.4
2017-Oct-17 20:00N 49°48' W 003°21'916.8
2017-Oct-17 19:29N 49°52' W 003°09'816.0
2017-Oct-17 19:00N 49°56' W 002°59'815.3
2017-Oct-17 18:28N 49°59' W 002°47'2314.4
2017-Oct-17 16:54N 50°05' W 002°13'714.6
2017-Oct-17 16:26N 50°07' W 002°03'715.2
2017-Oct-17 15:59N 50°09' W 001°52'916.2
2017-Oct-17 15:27N 50°12' W 001°40'1617.6
2017-Oct-17 14:32N 50°15' W 001°15'518.3
2017-Oct-17 14:15N 50°17' W 001°07'718.9
2017-Oct-17 13:52N 50°19' W 000°56'2018.8
2017-Oct-17 12:49N 50°24' W 000°27'618.4
2017-Oct-17 12:30N 50°26' W 000°18'917.9
2017-Oct-17 12:00N 50°28' W 000°05'917.4
2017-Oct-17 11:30N 50°30' E 000°09'816.9
2017-Oct-17 11:00N 50°33' E 000°21'816.2
2017-Oct-17 10:30N 50°35' E 000°33'815.5
2017-Oct-17 10:01N 50°40' E 000°43'815.2
2017-Oct-17 09:31N 50°44' E 000°53'814.7
2017-Oct-17 08:58N 50°48' E 001°04'714.8
2017-Oct-17 08:30N 50°52' E 001°13'714.7
2017-Oct-17 08:00N 50°57' E 001°21'816.0
2017-Oct-17 07:31N 51°03' E 001°30'714.4
2017-Oct-17 07:00N 51°06' E 001°41'816.3
2017-Oct-17 06:31N 51°02' E 001°52'917.5
2017-Oct-17 06:00N 51°03' E 002°06'4 2.7
2017-Oct-17 04:37N 51°01' E 002°11'0 0.0
2017-Oct-17 04:25N 51°01' E 002°11'0 0.0
2017-Oct-17 03:55N 51°01' E 002°11'0 0.0
2017-Oct-17 03:07N 51°01' E 002°11'0 0.0
2017-Oct-17 02:43N 51°01' E 002°11'0 0.0
2017-Oct-17 02:25N 51°01' E 002°11'0 0.0
2017-Oct-17 00:46N 51°01' E 002°11'0 0.0
2017-Oct-17 00:07N 51°01' E 002°11'0 0.0
2017-Oct-16 23:58N 51°01' E 002°11'1 1.5
2017-Oct-16 23:31N 51°01' E 002°10'815.2
2017-Oct-16 23:00N 51°02' E 001°58'714.5
2017-Oct-16 22:30N 51°03' E 001°47'612.9
2017-Oct-16 22:01N 51°09' E 001°41'611.4
2017-Oct-16 21:31N 51°13' E 001°46'713.5
2017-Oct-16 21:00N 51°19' E 001°52'714.8
2017-Oct-16 20:31N 51°25' E 001°59'815.1
2017-Oct-16 20:00N 51°22' E 002°10'714.9
2017-Oct-16 19:30N 51°21' E 002°22'815.8
2017-Oct-16 19:00N 51°23' E 002°34'714.5
2017-Oct-16 18:30N 51°22' E 002°46'816.2
2017-Oct-16 18:00N 51°23' E 002°59'816.2
2017-Oct-16 17:31N 51°24' E 003°12'917.3
2017-Oct-16 17:01N 51°25' E 003°25'714.3
2017-Oct-16 16:30N 51°26' E 003°37'612.8
2017-Oct-16 16:00N 51°22' E 003°45'714.6
2017-Oct-16 15:31N 51°23' E 003°56'4 8.2
2017-Oct-16 15:01N 51°23' E 004°03'9 8.9
2017-Oct-16 14:00N 51°20' E 004°16'0 0.0
2017-Oct-16 13:25N 51°20' E 004°16'0 0.0
2017-Oct-16 13:00N 51°20' E 004°16'0 0.0
2017-Oct-16 12:30N 51°20' E 004°16'0 0.0
2017-Oct-16 12:01N 51°20' E 004°16'0 0.0
2017-Oct-16 11:31N 51°20' E 004°16'0 0.0
2017-Oct-16 11:01N 51°20' E 004°16'0 0.0
2017-Oct-16 10:31N 51°20' E 004°16'0 0.0
2017-Oct-16 10:00N 51°20' E 004°16'0 0.0
2017-Oct-16 09:30N 51°20' E 004°16'0 0.0
2017-Oct-16 09:01N 51°20' E 004°16'0 0.0
2017-Oct-16 08:30N 51°20' E 004°16'0 0.0
2017-Oct-16 08:00N 51°20' E 004°16'0 0.0
2017-Oct-16 07:28N 51°20' E 004°16'0 0.0
2017-Oct-16 07:00N 51°20' E 004°16'0 0.0
2017-Oct-16 06:30N 51°20' E 004°16'0 0.0
2017-Oct-16 06:00N 51°20' E 004°16'0 0.0
2017-Oct-16 05:31N 51°20' E 004°16'0 0.0
2017-Oct-16 05:01N 51°20' E 004°16'0 0.0
2017-Oct-16 04:30N 51°20' E 004°16'0 0.0
2017-Oct-16 04:01N 51°20' E 004°16'0 0.0
2017-Oct-16 03:31N 51°20' E 004°16'0 0.0
2017-Oct-16 03:01N 51°20' E 004°16'3 4.9
2017-Oct-16 02:30N 51°22' E 004°13'3 6.9
2017-Oct-16 02:01N 51°22' E 004°08'5 9.4
2017-Oct-16 01:30N 51°25' E 004°02'5 9.9
2017-Oct-16 01:00N 51°22' E 003°55'612.8
2017-Oct-16 00:30N 51°22' E 003°45'612.8
2017-Oct-16 00:00N 51°26' E 003°37'3 6.0
2017-Oct-15 23:30N 51°27' E 003°33'612.0
2017-Oct-15 23:00N 51°31' E 003°26'611.3
2017-Oct-15 22:30N 51°36' E 003°22'914.5
2017-Oct-15 21:55N 51°44' E 003°15'3 5.3
2017-Oct-15 21:23N 51°46' E 003°16'1 2.9
2017-Oct-15 21:00N 51°47' E 003°17'2 3.5
2017-Oct-15 20:30N 51°49' E 003°17'2 4.8
2017-Oct-15 19:59N 51°52' E 003°18'5 5.1
2017-Oct-15 18:59N 51°57' E 003°19'3 5.2
2017-Oct-15 18:21N 51°60' E 003°20'2 5.1
2017-Oct-15 17:58N 52°02' E 003°21'2 5.1
2017-Oct-15 17:30N 52°02' E 003°25'3 5.3
2017-Oct-15 17:00N 52°03' E 003°29'3 5.4
2017-Oct-15 16:30N 52°03' E 003°34'3 5.5
2017-Oct-15 16:00N 52°03' E 003°38'4 7.1
2017-Oct-15 15:31N 52°03' E 003°44'510.6
2017-Oct-15 15:01N 52°03' E 003°52'1413.8
2017-Oct-15 14:00N 51°56' E 004°12'611.7
2017-Oct-15 13:30N 51°54' E 004°21'3 5.9
2017-Oct-15 13:01N 51°53' E 004°25'0 0.0
2017-Oct-15 12:30N 51°53' E 004°25'0 0.0
2017-Oct-15 12:00N 51°53' E 004°25'0 0.0
2017-Oct-15 11:30N 51°53' E 004°25'0 0.0
2017-Oct-15 11:00N 51°53' E 004°25'0 0.0
2017-Oct-15 10:30N 51°53' E 004°25'0 0.0
2017-Oct-15 10:00N 51°53' E 004°25'0 0.0
2017-Oct-15 09:30N 51°53' E 004°25'0 0.0
2017-Oct-15 09:00N 51°53' E 004°25'0 0.0
2017-Oct-15 08:30N 51°53' E 004°25'0 0.0
2017-Oct-15 08:00N 51°53' E 004°25'0 0.0
2017-Oct-15 07:30N 51°53' E 004°25'0 0.0
2017-Oct-15 07:00N 51°53' E 004°25'0 0.0
2017-Oct-15 06:30N 51°53' E 004°25'0 0.0
2017-Oct-15 06:00N 51°53' E 004°25'0 0.0
2017-Oct-15 05:30N 51°53' E 004°25'0 0.0
2017-Oct-15 05:00N 51°53' E 004°25'0 0.0
2017-Oct-15 04:30N 51°53' E 004°25'0 0.0
2017-Oct-15 04:00N 51°53' E 004°25'0 0.0
2017-Oct-15 03:30N 51°53' E 004°25'0 0.0
2017-Oct-15 03:00N 51°53' E 004°25'0 0.0
2017-Oct-15 02:30N 51°53' E 004°25'0 0.0
2017-Oct-15 02:00N 51°53' E 004°25'0 0.0
2017-Oct-15 01:30N 51°53' E 004°25'0 0.0
2017-Oct-15 01:00N 51°53' E 004°25'0 0.0
2017-Oct-15 00:30N 51°53' E 004°25'0 0.0
2017-Oct-15 00:00N 51°53' E 004°25'0 0.0
2017-Oct-14 23:30N 51°53' E 004°25'0 0.0
2017-Oct-14 23:00N 51°53' E 004°25'0 0.0
2017-Oct-14 22:27N 51°53' E 004°25'0 0.0
2017-Oct-14 22:00N 51°53' E 004°25'0 0.0
2017-Oct-14 21:30N 51°53' E 004°25'0 0.0
2017-Oct-14 21:00N 51°53' E 004°25'0 0.0
2017-Oct-14 20:30N 51°53' E 004°25'0 0.0
2017-Oct-14 20:00N 51°53' E 004°25'0 0.0
2017-Oct-14 19:30N 51°53' E 004°25'0 0.0
2017-Oct-14 19:00N 51°53' E 004°25'0 0.0
2017-Oct-14 18:30N 51°53' E 004°25'0 0.0
2017-Oct-14 18:00N 51°53' E 004°25'0 0.0
2017-Oct-14 17:30N 51°53' E 004°25'0 0.0
2017-Oct-14 16:57N 51°53' E 004°25'0 0.0
2017-Oct-14 16:30N 51°53' E 004°25'0 0.0
2017-Oct-14 16:00N 51°53' E 004°25'0 0.0
2017-Oct-14 15:30N 51°53' E 004°25'0 0.0
2017-Oct-14 15:00N 51°53' E 004°25'0 0.2
2017-Oct-14 14:30N 51°53' E 004°25'0 0.9
2017-Oct-14 14:00N 51°53' E 004°25'3 6.0
2017-Oct-14 13:30N 51°54' E 004°20'510.8
2017-Oct-14 13:00N 51°56' E 004°12'510.0
2017-Oct-14 12:30N 51°59' E 004°05'2 3.3
2017-Oct-14 12:00N 51°58' E 004°03'0 0.0
2017-Oct-14 11:29N 51°58' E 004°03'0 0.0
2017-Oct-14 10:59N 51°58' E 004°03'0 0.0
2017-Oct-14 10:30N 51°58' E 004°03'2 3.3
2017-Oct-14 10:01N 51°58' E 004°05'4 8.3
2017-Oct-14 09:30N 51°60' E 003°59'612.4
2017-Oct-14 09:00N 52°01' E 003°49'815.1
2017-Oct-14 08:29N 51°58' E 003°37'1018.5
2017-Oct-14 07:58N 51°55' E 003°22'1418.4
2017-Oct-14 07:12N 51°51' E 003°00'2917.5
2017-Oct-14 05:32N 51°34' E 002°22'117.7
2017-Oct-14 05:28N 51°33' E 002°21'817.2
2017-Oct-14 05:00N 51°27' E 002°13'817.0
2017-Oct-14 04:30N 51°19' E 002°08'816.0
2017-Oct-14 04:01N 51°13' E 001°60'816.3
2017-Oct-14 03:30N 51°09' E 001°48'815.8
2017-Oct-14 03:01N 51°03' E 001°40'815.5
2017-Oct-14 02:31N 50°57' E 001°32'815.2
2017-Oct-14 01:58N 50°50' E 001°26'816.1
2017-Oct-14 01:28N 50°42' E 001°22'816.0
2017-Oct-14 00:57N 50°36' E 001°13'4516.5
2017-Oct-13 22:15N 50°19' E 000°08'416.4
2017-Oct-13 22:01N 50°17' E 000°02'2515.9
2017-Oct-13 20:28N 49°53' W 000°08'817.3
2017-Oct-13 20:01N 49°46' W 000°10'816.9
2017-Oct-13 19:30N 49°38' W 000°06'816.5
2017-Oct-13 19:00N 49°31' E 000°01'510.3
2017-Oct-13 18:30N 49°28' E 000°08'1 2.9
2017-Oct-13 18:00N 49°29' E 000°10'0 0.0
2017-Oct-13 17:28N 49°29' E 000°10'0 0.0
2017-Oct-13 16:58N 49°29' E 000°10'0 0.0
2017-Oct-13 16:28N 49°29' E 000°10'0 0.0
2017-Oct-13 15:55N 49°29' E 000°10'0 0.0
2017-Oct-13 15:29N 49°29' E 000°10'0 0.0
2017-Oct-13 14:58N 49°29' E 000°10'0 0.0
2017-Oct-13 14:25N 49°29' E 000°10'0 0.0
2017-Oct-13 13:58N 49°29' E 000°10'0 0.0
2017-Oct-13 13:28N 49°29' E 000°10'0 0.0
2017-Oct-13 12:59N 49°29' E 000°10'0 0.2
2017-Oct-13 12:30N 49°29' E 000°10'1 2.7
2017-Oct-13 12:00N 49°28' E 000°08'3 6.9
2017-Oct-13 11:30N 49°30' E 000°03'5 9.9
2017-Oct-13 11:00N 49°31' W 000°04'5 9.8
2017-Oct-13 10:30N 49°33' W 000°11'2 4.8
2017-Oct-13 10:00N 49°34' W 000°15'2 4.6
2017-Oct-13 09:30N 49°34' W 000°18'2 3.8
2017-Oct-13 09:00N 49°35' W 000°21'2210.8
2017-Oct-13 07:00N 49°43' W 000°52'611.8
2017-Oct-13 06:30N 49°46' W 001°00'611.7
2017-Oct-13 06:01N 49°48' W 001°09'611.1
2017-Oct-13 05:31N 49°50' W 001°17'510.9
2017-Oct-13 05:00N 49°52' W 001°24'510.5
2017-Oct-13 04:31N 49°52' W 001°32'510.6
2017-Oct-13 04:00N 49°53' W 001°41'611.4
2017-Oct-13 03:30N 49°53' W 001°49'611.8
2017-Oct-13 03:00N 49°52' W 001°59'3012.0
2017-Oct-13 00:31N 49°49' W 002°45'012.0
2017-Oct-13 00:30N 49°49' W 002°45'1412.6
2017-Oct-12 23:24N 49°44' W 003°05'512.2
2017-Oct-12 23:00N 49°41' W 003°11'611.7
2017-Oct-12 22:28N 49°38' W 003°19'2711.8
2017-Oct-12 20:12N 49°24' W 003°55'1112.5
2017-Oct-12 19:17N 49°18' W 004°10'412.4
2017-Oct-12 19:00N 49°16' W 004°14'612.4
2017-Oct-12 18:30N 49°13' W 004°23'612.2
2017-Oct-12 17:58N 49°10' W 004°31'612.3
2017-Oct-12 17:30N 49°08' W 004°39'612.2
2017-Oct-12 17:00N 49°05' W 004°48'712.1
2017-Oct-12 16:26N 49°02' W 004°57'512.1
2017-Oct-12 15:59N 48°59' W 005°04'612.0
2017-Oct-12 15:28N 48°55' W 005°12'612.0
2017-Oct-12 14:58N 48°52' W 005°20'612.0
2017-Oct-12 14:28N 48°49' W 005°27'611.9
2017-Oct-12 13:59N 48°46' W 005°35'47912.6
2017-Oct-10 23:56N 41°22' W 009°48'612.7
2017-Oct-10 23:28N 41°16' W 009°49'612.7
2017-Oct-10 23:00N 41°11' W 009°49'612.5
2017-Oct-10 22:30N 41°04' W 009°49'612.3
2017-Oct-10 22:00N 40°58' W 009°50'1812.6
2017-Oct-10 20:36N 40°41' W 009°50'212.6
2017-Oct-10 20:25N 40°38' W 009°50'512.7
2017-Oct-10 20:00N 40°33' W 009°50'612.8
2017-Oct-10 19:30N 40°27' W 009°49'712.9
2017-Oct-10 18:58N 40°20' W 009°49'613.2
2017-Oct-10 18:30N 40°14' W 009°49'613.1
2017-Oct-10 18:00N 40°07' W 009°49'612.6
2017-Oct-10 17:30N 40°01' W 009°49'612.7
2017-Oct-10 17:00N 39°54' W 009°49'612.7
2017-Oct-10 16:30N 39°48' W 009°50'712.9
2017-Oct-10 15:59N 39°41' W 009°50'612.8
2017-Oct-10 15:30N 39°35' W 009°49'612.7
2017-Oct-10 15:00N 39°29' W 009°49'1313.0
2017-Oct-10 14:00N 39°16' W 009°50'713.2
2017-Oct-10 13:30N 39°09' W 009°50'713.2
2017-Oct-10 13:00N 39°03' W 009°50'612.9
2017-Oct-10 12:31N 38°56' W 009°51'713.0
2017-Oct-10 12:00N 38°50' W 009°51'815.6
2017-Oct-10 11:30N 38°42' W 009°50'815.8
2017-Oct-10 11:01N 38°34' W 009°47'816.0
2017-Oct-10 10:31N 38°27' W 009°45'816.2
2017-Oct-10 10:00N 38°19' W 009°43'816.5
2017-Oct-10 09:31N 38°11' W 009°41'816.6
2017-Oct-10 09:00N 38°03' W 009°38'816.1
2017-Oct-10 08:31N 37°55' W 009°36'816.1
2017-Oct-10 08:00N 37°47' W 009°34'816.7
2017-Oct-10 07:31N 37°39' W 009°31'816.7
2017-Oct-10 07:00N 37°31' W 009°29'816.7
2017-Oct-10 06:30N 37°22' W 009°27'816.5
2017-Oct-10 06:01N 37°14' W 009°24'816.4
2017-Oct-10 05:31N 37°06' W 009°22'816.3
2017-Oct-10 05:01N 36°58' W 009°20'815.3
2017-Oct-10 04:30N 36°51' W 009°16'816.1
2017-Oct-10 04:00N 36°46' W 009°09'816.3
2017-Oct-10 03:31N 36°42' W 009°00'816.0
2017-Oct-10 03:01N 36°34' W 008°57'816.1
2017-Oct-10 02:31N 36°26' W 008°54'816.1
2017-Oct-10 02:00N 36°19' W 008°50'816.1
2017-Oct-10 01:30N 36°11' W 008°46'816.4
2017-Oct-10 01:00N 36°04' W 008°43'916.2
2017-Oct-10 00:27N 35°55' W 008°39'716.1
2017-Oct-10 00:00N 35°48' W 008°35'1515.9
2017-Oct-09 23:01N 35°34' W 008°28'016.1
2017-Oct-09 23:00N 35°34' W 008°28'7716.0
2017-Oct-09 18:13N 34°23' W 007°53'315.9
2017-Oct-09 18:01N 34°20' W 007°51'815.6
2017-Oct-09 17:30N 34°12' W 007°48'2016.0
2017-Oct-09 16:17N 33°54' W 007°39'515.7
2017-Oct-09 15:59N 33°50' W 007°37'816.1
2017-Oct-09 15:30N 33°42' W 007°34'6 9.8
2017-Oct-09 14:52N 33°37' W 007°36'37 1.8
2017-Oct-08 17:44N 33°30' W 008°20'513.4
2017-Oct-08 17:21N 33°28' W 008°26'513.2
2017-Oct-08 16:57N 33°26' W 008°32'  
Track history (hours):
 
Tides and Currents Weather Stations Pressure Air Temp Water Temp Dewpoint Dewpoint Depression Visibility Wind Speed Wind Dir Waves Ship Positions

Externo

Last reported at 2017-Oct-18 04:29 UTC. Time now 2017-Oct-18 07:12 UTC.
Position N 48°22' W 006°12'.

Length 141 m; draft 8.6 m.

Type: Ship (hazmat cat C). MMSI: 305838000.

Date/timePositionNaut miles runAvg speedWind from/ knotsBaromVisibWave heightAir tempDewpointWater temp
2017-Oct-18 04:29N 48°22' W 006°12'4015.9
2017-Oct-18 02:00N 48°56' W 005°41'915.9
2017-Oct-18 01:25N 48°60' W 005°28'8717.7
2017-Oct-17 20:29N 49°44' W 003°32'817.4
2017-Oct-17 20:00N 49°48' W 003°21'916.8
2017-Oct-17 19:29N 49°52' W 003°09'816.0
2017-Oct-17 19:00N 49°56' W 002°59'815.3
2017-Oct-17 18:28N 49°59' W 002°47'2314.4
2017-Oct-17 16:54N 50°05' W 002°13'714.6
2017-Oct-17 16:26N 50°07' W 002°03'715.2
2017-Oct-17 15:59N 50°09' W 001°52'916.2
2017-Oct-17 15:27N 50°12' W 001°40'1617.6
2017-Oct-17 14:32N 50°15' W 001°15'518.3
2017-Oct-17 14:15N 50°17' W 001°07'718.9
2017-Oct-17 13:52N 50°19' W 000°56'2018.8
2017-Oct-17 12:49N 50°24' W 000°27'618.4
2017-Oct-17 12:30N 50°26' W 000°18'917.9
2017-Oct-17 12:00N 50°28' W 000°05'917.4
2017-Oct-17 11:30N 50°30' E 000°09'816.9
2017-Oct-17 11:00N 50°33' E 000°21'816.2
2017-Oct-17 10:30N 50°35' E 000°33'815.5
2017-Oct-17 10:01N 50°40' E 000°43'815.2
2017-Oct-17 09:31N 50°44' E 000°53'814.7
2017-Oct-17 08:58N 50°48' E 001°04'714.8
2017-Oct-17 08:30N 50°52' E 001°13'714.7
2017-Oct-17 08:00N 50°57' E 001°21'816.0
2017-Oct-17 07:31N 51°03' E 001°30'714.4
2017-Oct-17 07:00N 51°06' E 001°41'816.3
2017-Oct-17 06:31N 51°02' E 001°52'917.5
2017-Oct-17 06:00N 51°03' E 002°06'4 2.7
2017-Oct-17 04:37N 51°01' E 002°11'0 0.0
2017-Oct-17 04:25N 51°01' E 002°11'0 0.0
2017-Oct-17 03:55N 51°01' E 002°11'0 0.0
2017-Oct-17 03:07N 51°01' E 002°11'0 0.0
2017-Oct-17 02:43N 51°01' E 002°11'0 0.0
2017-Oct-17 02:25N 51°01' E 002°11'0 0.0
2017-Oct-17 00:46N 51°01' E 002°11'0 0.0
2017-Oct-17 00:07N 51°01' E 002°11'0 0.0
2017-Oct-16 23:58N 51°01' E 002°11'1 1.5
2017-Oct-16 23:31N 51°01' E 002°10'815.2
2017-Oct-16 23:00N 51°02' E 001°58'714.5
2017-Oct-16 22:30N 51°03' E 001°47'612.9
2017-Oct-16 22:01N 51°09' E 001°41'611.4
2017-Oct-16 21:31N 51°13' E 001°46'713.5
2017-Oct-16 21:00N 51°19' E 001°52'714.8
2017-Oct-16 20:31N 51°25' E 001°59'815.1
2017-Oct-16 20:00N 51°22' E 002°10'714.9
2017-Oct-16 19:30N 51°21' E 002°22'815.8
2017-Oct-16 19:00N 51°23' E 002°34'714.5
2017-Oct-16 18:30N 51°22' E 002°46'816.2
2017-Oct-16 18:00N 51°23' E 002°59'816.2
2017-Oct-16 17:31N 51°24' E 003°12'917.3
2017-Oct-16 17:01N 51°25' E 003°25'714.3
2017-Oct-16 16:30N 51°26' E 003°37'612.8
2017-Oct-16 16:00N 51°22' E 003°45'714.6
2017-Oct-16 15:31N 51°23' E 003°56'4 8.2
2017-Oct-16 15:01N 51°23' E 004°03'9 8.9
2017-Oct-16 14:00N 51°20' E 004°16'0 0.0
2017-Oct-16 13:25N 51°20' E 004°16'0 0.0
2017-Oct-16 13:00N 51°20' E 004°16'0 0.0
2017-Oct-16 12:30N 51°20' E 004°16'0 0.0
2017-Oct-16 12:01N 51°20' E 004°16'0 0.0
2017-Oct-16 11:31N 51°20' E 004°16'0 0.0
2017-Oct-16 11:01N 51°20' E 004°16'0 0.0
2017-Oct-16 10:31N 51°20' E 004°16'0 0.0
2017-Oct-16 10:00N 51°20' E 004°16'0 0.0
2017-Oct-16 09:30N 51°20' E 004°16'0 0.0
2017-Oct-16 09:01N 51°20' E 004°16'0 0.0
2017-Oct-16 08:30N 51°20' E 004°16'0 0.0
2017-Oct-16 08:00N 51°20' E 004°16'0 0.0
2017-Oct-16 07:28N 51°20' E 004°16'0 0.0
2017-Oct-16 07:00N 51°20' E 004°16'0 0.0
2017-Oct-16 06:30N 51°20' E 004°16'0 0.0
2017-Oct-16 06:00N 51°20' E 004°16'0 0.0
2017-Oct-16 05:31N 51°20' E 004°16'0 0.0
2017-Oct-16 05:01N 51°20' E 004°16'0 0.0
2017-Oct-16 04:30N 51°20' E 004°16'0 0.0
2017-Oct-16 04:01N 51°20' E 004°16'0 0.0
2017-Oct-16 03:31N 51°20' E 004°16'0 0.0
2017-Oct-16 03:01N 51°20' E 004°16'3 4.9
2017-Oct-16 02:30N 51°22' E 004°13'3 6.9
2017-Oct-16 02:01N 51°22' E 004°08'5 9.4
2017-Oct-16 01:30N 51°25' E 004°02'5 9.9
2017-Oct-16 01:00N 51°22' E 003°55'612.8
2017-Oct-16 00:30N 51°22' E 003°45'612.8
2017-Oct-16 00:00N 51°26' E 003°37'3 6.0
2017-Oct-15 23:30N 51°27' E 003°33'612.0
2017-Oct-15 23:00N 51°31' E 003°26'611.3
2017-Oct-15 22:30N 51°36' E 003°22'914.5
2017-Oct-15 21:55N 51°44' E 003°15'3 5.3
2017-Oct-15 21:23N 51°46' E 003°16'1 2.9
2017-Oct-15 21:00N 51°47' E 003°17'2 3.5
2017-Oct-15 20:30N 51°49' E 003°17'2 4.8
2017-Oct-15 19:59N 51°52' E 003°18'5 5.1
2017-Oct-15 18:59N 51°57' E 003°19'3 5.2
2017-Oct-15 18:21N 51°60' E 003°20'2 5.1
2017-Oct-15 17:58N 52°02' E 003°21'2 5.1
2017-Oct-15 17:30N 52°02' E 003°25'3 5.3
2017-Oct-15 17:00N 52°03' E 003°29'3 5.4
2017-Oct-15 16:30N 52°03' E 003°34'3 5.5
2017-Oct-15 16:00N 52°03' E 003°38'4 7.1
2017-Oct-15 15:31N 52°03' E 003°44'510.6
2017-Oct-15 15:01N 52°03' E 003°52'1413.8
2017-Oct-15 14:00N 51°56' E 004°12'611.7
2017-Oct-15 13:30N 51°54' E 004°21'3 5.9
2017-Oct-15 13:01N 51°53' E 004°25'0 0.0
2017-Oct-15 12:30N 51°53' E 004°25'0 0.0
2017-Oct-15 12:00N 51°53' E 004°25'0 0.0
2017-Oct-15 11:30N 51°53' E 004°25'0 0.0
2017-Oct-15 11:00N 51°53' E 004°25'0 0.0
2017-Oct-15 10:30N 51°53' E 004°25'0 0.0
2017-Oct-15 10:00N 51°53' E 004°25'0 0.0
2017-Oct-15 09:30N 51°53' E 004°25'0 0.0
2017-Oct-15 09:00N 51°53' E 004°25'0 0.0
2017-Oct-15 08:30N 51°53' E 004°25'0 0.0
2017-Oct-15 08:00N 51°53' E 004°25'0 0.0
2017-Oct-15 07:30N 51°53' E 004°25'0 0.0
2017-Oct-15 07:00N 51°53' E 004°25'0 0.0
2017-Oct-15 06:30N 51°53' E 004°25'0 0.0
2017-Oct-15 06:00N 51°53' E 004°25'0 0.0
2017-Oct-15 05:30N 51°53' E 004°25'0 0.0
2017-Oct-15 05:00N 51°53' E 004°25'0 0.0
2017-Oct-15 04:30N 51°53' E 004°25'0 0.0
2017-Oct-15 04:00N 51°53' E 004°25'0 0.0
2017-Oct-15 03:30N 51°53' E 004°25'0 0.0
2017-Oct-15 03:00N 51°53' E 004°25'0 0.0
2017-Oct-15 02:30N 51°53' E 004°25'0 0.0
2017-Oct-15 02:00N 51°53' E 004°25'0 0.0
2017-Oct-15 01:30N 51°53' E 004°25'0 0.0
2017-Oct-15 01:00N 51°53' E 004°25'0 0.0
2017-Oct-15 00:30N 51°53' E 004°25'0 0.0
2017-Oct-15 00:00N 51°53' E 004°25'0 0.0
2017-Oct-14 23:30N 51°53' E 004°25'0 0.0
2017-Oct-14 23:00N 51°53' E 004°25'0 0.0
2017-Oct-14 22:27N 51°53' E 004°25'0 0.0
2017-Oct-14 22:00N 51°53' E 004°25'0 0.0
2017-Oct-14 21:30N 51°53' E 004°25'0 0.0
2017-Oct-14 21:00N 51°53' E 004°25'0 0.0
2017-Oct-14 20:30N 51°53' E 004°25'0 0.0
2017-Oct-14 20:00N 51°53' E 004°25'0 0.0
2017-Oct-14 19:30N 51°53' E 004°25'0 0.0
2017-Oct-14 19:00N 51°53' E 004°25'0 0.0
2017-Oct-14 18:30N 51°53' E 004°25'0 0.0
2017-Oct-14 18:00N 51°53' E 004°25'0 0.0
2017-Oct-14 17:30N 51°53' E 004°25'0 0.0
2017-Oct-14 16:57N 51°53' E 004°25'0 0.0
2017-Oct-14 16:30N 51°53' E 004°25'0 0.0
2017-Oct-14 16:00N 51°53' E 004°25'0 0.0
2017-Oct-14 15:30N 51°53' E 004°25'0 0.0
2017-Oct-14 15:00N 51°53' E 004°25'0 0.2
2017-Oct-14 14:30N 51°53' E 004°25'0 0.9
2017-Oct-14 14:00N 51°53' E 004°25'3 6.0
2017-Oct-14 13:30N 51°54' E 004°20'510.8
2017-Oct-14 13:00N 51°56' E 004°12'510.0
2017-Oct-14 12:30N 51°59' E 004°05'2 3.3
2017-Oct-14 12:00N 51°58' E 004°03'0 0.0
2017-Oct-14 11:29N 51°58' E 004°03'0 0.0
2017-Oct-14 10:59N 51°58' E 004°03'0 0.0
2017-Oct-14 10:30N 51°58' E 004°03'2 3.3
2017-Oct-14 10:01N 51°58' E 004°05'4 8.3
2017-Oct-14 09:30N 51°60' E 003°59'612.4
2017-Oct-14 09:00N 52°01' E 003°49'815.1
2017-Oct-14 08:29N 51°58' E 003°37'1018.5
2017-Oct-14 07:58N 51°55' E 003°22'1418.4
2017-Oct-14 07:12N 51°51' E 003°00'2917.5
2017-Oct-14 05:32N 51°34' E 002°22'117.7
2017-Oct-14 05:28N 51°33' E 002°21'817.2
2017-Oct-14 05:00N 51°27' E 002°13'817.0
2017-Oct-14 04:30N 51°19' E 002°08'816.0
2017-Oct-14 04:01N 51°13' E 001°60'816.3
2017-Oct-14 03:30N 51°09' E 001°48'815.8
2017-Oct-14 03:01N 51°03' E 001°40'815.5
2017-Oct-14 02:31N 50°57' E 001°32'815.2
2017-Oct-14 01:58N 50°50' E 001°26'816.1
2017-Oct-14 01:28N 50°42' E 001°22'816.0
2017-Oct-14 00:57N 50°36' E 001°13'4516.5
2017-Oct-13 22:15N 50°19' E 000°08'416.4
2017-Oct-13 22:01N 50°17' E 000°02'2515.9
2017-Oct-13 20:28N 49°53' W 000°08'817.3
2017-Oct-13 20:01N 49°46' W 000°10'816.9
2017-Oct-13 19:30N 49°38' W 000°06'816.5
2017-Oct-13 19:00N 49°31' E 000°01'510.3
2017-Oct-13 18:30N 49°28' E 000°08'1 2.9
2017-Oct-13 18:00N 49°29' E 000°10'0 0.0
2017-Oct-13 17:28N 49°29' E 000°10'0 0.0
2017-Oct-13 16:58N 49°29' E 000°10'0 0.0
2017-Oct-13 16:28N 49°29' E 000°10'0 0.0
2017-Oct-13 15:55N 49°29' E 000°10'0 0.0
2017-Oct-13 15:29N 49°29' E 000°10'0 0.0
2017-Oct-13 14:58N 49°29' E 000°10'0 0.0
2017-Oct-13 14:25N 49°29' E 000°10'0 0.0
2017-Oct-13 13:58N 49°29' E 000°10'0 0.0
2017-Oct-13 13:28N 49°29' E 000°10'0 0.0
2017-Oct-13 12:59N 49°29' E 000°10'0 0.2
2017-Oct-13 12:30N 49°29' E 000°10'1 2.7
2017-Oct-13 12:00N 49°28' E 000°08'3 6.9
2017-Oct-13 11:30N 49°30' E 000°03'5 9.9
2017-Oct-13 11:00N 49°31' W 000°04'5 9.8
2017-Oct-13 10:30N 49°33' W 000°11'2 4.8
2017-Oct-13 10:00N 49°34' W 000°15'2 4.6
2017-Oct-13 09:30N 49°34' W 000°18'2 3.8
2017-Oct-13 09:00N 49°35' W 000°21'2210.8
2017-Oct-13 07:00N 49°43' W 000°52'611.8
2017-Oct-13 06:30N 49°46' W 001°00'611.7
2017-Oct-13 06:01N 49°48' W 001°09'611.1
2017-Oct-13 05:31N 49°50' W 001°17'510.9
2017-Oct-13 05:00N 49°52' W 001°24'510.5
2017-Oct-13 04:31N 49°52' W 001°32'510.6
2017-Oct-13 04:00N 49°53' W 001°41'611.4
2017-Oct-13 03:30N 49°53' W 001°49'611.8
2017-Oct-13 03:00N 49°52' W 001°59'3012.0
2017-Oct-13 00:31N 49°49' W 002°45'012.0
2017-Oct-13 00:30N 49°49' W 002°45'1412.6
2017-Oct-12 23:24N 49°44' W 003°05'512.2
2017-Oct-12 23:00N 49°41' W 003°11'611.7
2017-Oct-12 22:28N 49°38' W 003°19'2711.8
2017-Oct-12 20:12N 49°24' W 003°55'1112.5
2017-Oct-12 19:17N 49°18' W 004°10'412.4
2017-Oct-12 19:00N 49°16' W 004°14'612.4
2017-Oct-12 18:30N 49°13' W 004°23'612.2
2017-Oct-12 17:58N 49°10' W 004°31'612.3
2017-Oct-12 17:30N 49°08' W 004°39'612.2
2017-Oct-12 17:00N 49°05' W 004°48'712.1
2017-Oct-12 16:26N 49°02' W 004°57'512.1
2017-Oct-12 15:59N 48°59' W 005°04'612.0
2017-Oct-12 15:28N 48°55' W 005°12'612.0
2017-Oct-12 14:58N 48°52' W 005°20'612.0
2017-Oct-12 14:28N 48°49' W 005°27'611.9
2017-Oct-12 13:59N 48°46' W 005°35'47912.6
2017-Oct-10 23:56N 41°22' W 009°48'612.7
2017-Oct-10 23:28N 41°16' W 009°49'612.7
2017-Oct-10 23:00N 41°11' W 009°49'612.5
2017-Oct-10 22:30N 41°04' W 009°49'612.3
2017-Oct-10 22:00N 40°58' W 009°50'1812.6
2017-Oct-10 20:36N 40°41' W 009°50'212.6
2017-Oct-10 20:25N 40°38' W 009°50'512.7
2017-Oct-10 20:00N 40°33' W 009°50'612.8
2017-Oct-10 19:30N 40°27' W 009°49'712.9
2017-Oct-10 18:58N 40°20' W 009°49'613.2
2017-Oct-10 18:30N 40°14' W 009°49'613.1
2017-Oct-10 18:00N 40°07' W 009°49'612.6
2017-Oct-10 17:30N 40°01' W 009°49'612.7
2017-Oct-10 17:00N 39°54' W 009°49'612.7
2017-Oct-10 16:30N 39°48' W 009°50'712.9
2017-Oct-10 15:59N 39°41' W 009°50'612.8
2017-Oct-10 15:30N 39°35' W 009°49'612.7
2017-Oct-10 15:00N 39°29' W 009°49'1313.0
2017-Oct-10 14:00N 39°16' W 009°50'713.2
2017-Oct-10 13:30N 39°09' W 009°50'713.2
2017-Oct-10 13:00N 39°03' W 009°50'612.9
2017-Oct-10 12:31N 38°56' W 009°51'713.0
2017-Oct-10 12:00N 38°50' W 009°51'815.6
2017-Oct-10 11:30N 38°42' W 009°50'815.8
2017-Oct-10 11:01N 38°34' W 009°47'816.0
2017-Oct-10 10:31N 38°27' W 009°45'816.2
2017-Oct-10 10:00N 38°19' W 009°43'816.5
2017-Oct-10 09:31N 38°11' W 009°41'816.6
2017-Oct-10 09:00N 38°03' W 009°38'816.1
2017-Oct-10 08:31N 37°55' W 009°36'816.1
2017-Oct-10 08:00N 37°47' W 009°34'816.7
2017-Oct-10 07:31N 37°39' W 009°31'816.7
2017-Oct-10 07:00N 37°31' W 009°29'816.7
2017-Oct-10 06:30N 37°22' W 009°27'816.5
2017-Oct-10 06:01N 37°14' W 009°24'816.4
2017-Oct-10 05:31N 37°06' W 009°22'816.3
2017-Oct-10 05:01N 36°58' W 009°20'815.3
2017-Oct-10 04:30N 36°51' W 009°16'816.1
2017-Oct-10 04:00N 36°46' W 009°09'816.3
2017-Oct-10 03:31N 36°42' W 009°00'816.0
2017-Oct-10 03:01N 36°34' W 008°57'816.1
2017-Oct-10 02:31N 36°26' W 008°54'816.1
2017-Oct-10 02:00N 36°19' W 008°50'816.1
2017-Oct-10 01:30N 36°11' W 008°46'816.4
2017-Oct-10 01:00N 36°04' W 008°43'916.2
2017-Oct-10 00:27N 35°55' W 008°39'716.1
2017-Oct-10 00:00N 35°48' W 008°35'1515.9
2017-Oct-09 23:01N 35°34' W 008°28'016.1
2017-Oct-09 23:00N 35°34' W 008°28'7716.0
2017-Oct-09 18:13N 34°23' W 007°53'315.9
2017-Oct-09 18:01N 34°20' W 007°51'815.6
2017-Oct-09 17:30N 34°12' W 007°48'2016.0
2017-Oct-09 16:17N 33°54' W 007°39'515.7
2017-Oct-09 15:59N 33°50' W 007°37'816.1
2017-Oct-09 15:30N 33°42' W 007°34'6 9.8
2017-Oct-09 14:52N 33°37' W 007°36'37 1.8
2017-Oct-08 17:44N 33°30' W 008°20'513.4
2017-Oct-08 17:21N 33°28' W 008°26'513.2
2017-Oct-08 16:57N 33°26' W 008°32'  

Dump ship's entire track history